createdAt,value
2018-06-09T00:02:23.731Z,18.10
2018-06-09T00:04:51.955Z,18.10
2018-06-09T00:07:20.118Z,18.10
2018-06-09T00:09:48.313Z,18.00
2018-06-09T00:12:16.459Z,18.00
2018-06-09T00:14:44.650Z,17.90
2018-06-09T00:17:12.822Z,17.90
2018-06-09T00:19:41.016Z,17.90
2018-06-09T00:22:09.182Z,17.90
2018-06-09T00:24:37.405Z,17.80
2018-06-09T00:27:05.683Z,17.80
2018-06-09T00:29:33.895Z,17.80
2018-06-09T00:32:02.071Z,17.80
2018-06-09T00:34:30.245Z,17.80
2018-06-09T00:36:58.615Z,17.70
2018-06-09T00:39:26.813Z,17.70
2018-06-09T00:44:23.016Z,17.60
2018-06-09T00:46:51.228Z,17.60
2018-06-09T00:49:19.432Z,17.60
2018-06-09T00:51:47.605Z,17.60
2018-06-09T00:54:15.815Z,17.50
2018-06-09T00:56:45.321Z,17.50
2018-06-09T00:59:13.565Z,17.50
2018-06-09T01:01:42.798Z,17.50
2018-06-09T01:04:10.995Z,17.50
2018-06-09T01:06:39.280Z,17.40
2018-06-09T01:09:08.376Z,17.40
2018-06-09T01:11:36.615Z,17.40
2018-06-09T01:14:04.896Z,17.40
2018-06-09T01:16:33.066Z,17.40
2018-06-09T01:19:01.277Z,17.40
2018-06-09T01:21:29.461Z,17.40
2018-06-09T01:23:57.611Z,17.30
2018-06-09T01:26:25.755Z,17.30
2018-06-09T01:28:53.950Z,17.30
2018-06-09T01:31:22.150Z,17.20
2018-06-09T01:33:50.333Z,17.20
2018-06-09T01:36:18.511Z,17.20
2018-06-09T01:38:46.688Z,17.20
2018-06-09T01:41:14.859Z,17.10
2018-06-09T01:43:43.023Z,17.10
2018-06-09T01:46:11.188Z,17.10
2018-06-09T01:51:07.268Z,17.00
2018-06-09T01:53:35.441Z,17.00
2018-06-09T01:56:03.635Z,16.90
2018-06-09T01:58:31.828Z,16.90
2018-06-09T02:00:59.983Z,16.90
2018-06-09T02:03:28.192Z,16.90
2018-06-09T02:05:56.407Z,16.90
2018-06-09T02:08:24.589Z,16.80
2018-06-09T02:10:53.286Z,16.80
2018-06-09T02:13:21.467Z,16.80
2018-06-09T02:15:49.644Z,16.80
2018-06-09T02:18:17.808Z,16.70
2018-06-09T02:20:45.983Z,16.70
2018-06-09T02:23:14.156Z,15.80
2018-06-09T02:25:42.405Z,16.70
2018-06-09T02:28:10.614Z,16.70
2018-06-09T02:30:38.842Z,16.60
2018-06-09T02:33:07.093Z,16.60
2018-06-09T02:35:35.269Z,16.60
2018-06-09T02:38:03.441Z,16.60
2018-06-09T02:40:39.946Z,16.60
2018-06-09T02:43:08.119Z,16.60
2018-06-09T02:45:36.296Z,16.60
2018-06-09T02:48:04.531Z,16.60
2018-06-09T02:50:32.725Z,16.60
2018-06-09T02:53:00.896Z,16.60
2018-06-09T02:55:29.088Z,16.50
2018-06-09T02:57:57.292Z,16.50
2018-06-09T03:00:25.492Z,16.50
2018-06-09T03:02:53.700Z,16.50
2018-06-09T03:05:21.988Z,16.50
2018-06-09T03:07:50.172Z,16.40
2018-06-09T03:10:19.053Z,16.40
2018-06-09T03:12:47.236Z,16.40
2018-06-09T03:15:15.466Z,16.40
2018-06-09T03:17:43.661Z,16.40
2018-06-09T03:20:11.834Z,16.40
2018-06-09T03:22:40.025Z,16.30
2018-06-09T03:25:08.555Z,16.30
2018-06-09T03:27:36.780Z,16.30
2018-06-09T03:30:05.995Z,16.30
2018-06-09T03:32:34.193Z,16.30
2018-06-09T03:35:22.328Z,16.30
2018-06-09T03:37:50.560Z,16.30
2018-06-09T03:40:18.755Z,16.30
2018-06-09T03:42:46.941Z,16.30
2018-06-09T03:45:15.088Z,16.30
2018-06-09T03:47:43.286Z,16.20
2018-06-09T03:50:11.533Z,16.20
2018-06-09T03:52:39.676Z,16.20
2018-06-09T03:55:07.821Z,16.20
2018-06-09T03:57:36.009Z,16.20
2018-06-09T04:00:04.231Z,16.10
2018-06-09T04:02:32.461Z,16.10
2018-06-09T04:05:00.637Z,16.10
2018-06-09T04:07:42.093Z,16.20
2018-06-09T04:10:10.254Z,16.20
2018-06-09T04:12:38.425Z,16.20
2018-06-09T04:15:06.981Z,16.20
2018-06-09T04:17:35.210Z,16.30
2018-06-09T04:20:03.519Z,16.30
2018-06-09T04:22:33.835Z,16.40
2018-06-09T04:25:02.081Z,16.50
2018-06-09T04:27:30.392Z,16.50
2018-06-09T04:29:58.610Z,16.60
2018-06-09T04:32:27.305Z,16.70
2018-06-09T04:34:55.690Z,16.70
2018-06-09T04:39:52.271Z,17.00
2018-06-09T04:42:25.684Z,17.20
2018-06-09T04:44:53.900Z,17.40
2018-06-09T04:47:22.174Z,17.60
2018-06-09T04:49:52.467Z,17.80
2018-06-09T04:52:20.689Z,18.00
2018-06-09T04:54:55.779Z,18.20
2018-06-09T04:57:23.997Z,18.30
2018-06-09T04:59:52.202Z,18.30
2018-06-09T05:02:20.429Z,18.40
2018-06-09T05:04:48.677Z,18.40
2018-06-09T05:07:16.909Z,18.50
2018-06-09T05:09:45.122Z,18.30
2018-06-09T05:12:13.360Z,18.40
2018-06-09T05:14:41.577Z,18.50
2018-06-09T05:17:09.856Z,18.70
2018-06-09T05:19:41.189Z,18.70
2018-06-09T05:22:09.402Z,18.80
2018-06-09T05:24:37.645Z,18.80
2018-06-09T05:27:09.833Z,18.90
2018-06-09T05:29:38.085Z,19.00
2018-06-09T05:32:18.365Z,19.10
2018-06-09T05:34:46.571Z,19.20
2018-06-09T05:37:15.831Z,19.30
2018-06-09T05:39:48.093Z,19.30
2018-06-09T05:42:16.425Z,19.40
2018-06-09T05:44:45.817Z,19.60
2018-06-09T05:47:14.199Z,19.80
2018-06-09T05:49:46.232Z,20.10
2018-06-09T05:52:14.418Z,20.00
2018-06-09T05:54:42.633Z,20.00
2018-06-09T05:57:10.934Z,20.00
2018-06-09T05:59:39.152Z,20.10
2018-06-09T06:02:07.408Z,20.50
2018-06-09T06:04:35.629Z,20.70
2018-06-09T06:07:03.812Z,20.90
2018-06-09T06:09:32.042Z,20.80
2018-06-09T06:12:00.362Z,21.10
2018-06-09T06:14:30.513Z,21.50
2018-06-09T06:16:59.273Z,21.70
2018-06-09T06:19:33.674Z,22.00
2018-06-09T06:22:06.299Z,22.30
2018-06-09T06:24:35.530Z,22.30
2018-06-09T06:27:03.904Z,21.80
2018-06-09T06:29:32.110Z,21.20
2018-06-09T06:32:00.346Z,20.90
2018-06-09T06:34:28.474Z,21.10
2018-06-09T06:36:56.669Z,20.90
2018-06-09T06:39:24.900Z,20.90
2018-06-09T06:41:53.092Z,21.00
2018-06-09T06:44:21.260Z,20.90
2018-06-09T06:46:49.459Z,21.00
2018-06-09T06:49:17.641Z,21.00
2018-06-09T06:51:46.196Z,21.00
2018-06-09T06:54:14.423Z,21.10
2018-06-09T06:56:42.737Z,21.20
2018-06-09T06:59:10.948Z,21.20
2018-06-09T07:01:39.120Z,21.20
2018-06-09T07:04:08.200Z,21.10
2018-06-09T07:06:36.400Z,21.00
2018-06-09T07:09:07.080Z,21.00
2018-06-09T07:11:35.343Z,21.20
2018-06-09T07:14:03.543Z,21.30
2018-06-09T07:16:31.814Z,21.40
2018-06-09T07:19:00.136Z,21.40
2018-06-09T07:21:28.294Z,21.40
2018-06-09T07:23:56.471Z,21.30
2018-06-09T07:26:24.649Z,21.30
2018-06-09T07:28:52.815Z,21.50
2018-06-09T07:31:20.996Z,21.60
2018-06-09T07:33:49.215Z,21.60
2018-06-09T07:36:17.369Z,21.60
2018-06-09T07:38:45.565Z,21.70
2018-06-09T07:41:13.749Z,21.80
2018-06-09T07:43:42.041Z,22.00
2018-06-09T07:46:10.395Z,21.90
2018-06-09T07:48:39.213Z,22.00
2018-06-09T07:51:07.385Z,22.20
2018-06-09T07:53:35.590Z,22.20
2018-06-09T07:56:03.773Z,22.20
2018-06-09T08:01:00.049Z,22.90
2018-06-09T08:03:28.229Z,22.90
2018-06-09T08:05:57.147Z,23.40
2018-06-09T08:08:25.416Z,23.60
2018-06-09T08:10:53.604Z,24.00
2018-06-09T08:13:21.778Z,24.50
2018-06-09T08:15:50.302Z,24.80
2018-06-09T08:18:18.496Z,24.90
2018-06-09T08:20:48.828Z,24.80
2018-06-09T08:23:17.036Z,25.10
2018-06-09T08:28:13.132Z,25.80
2018-06-09T08:30:41.436Z,25.90
2018-06-09T08:33:09.636Z,25.90
2018-06-09T08:35:37.785Z,25.90
2018-06-09T08:38:06.001Z,25.60
2018-06-09T08:40:34.152Z,25.80
2018-06-09T08:43:02.357Z,26.20
2018-06-09T08:45:30.483Z,26.40
2018-06-09T08:47:58.704Z,26.50
2018-06-09T08:50:26.878Z,26.60
2018-06-09T08:52:55.071Z,26.70
2018-06-09T08:55:23.227Z,26.80
2018-06-09T08:57:51.418Z,26.90
2018-06-09T09:00:19.581Z,26.70
2018-06-09T09:02:47.807Z,26.40
2018-06-09T09:05:16.097Z,26.40
2018-06-09T09:07:44.352Z,26.40
2018-06-09T09:10:12.539Z,26.60
2018-06-09T09:12:40.712Z,26.70
2018-06-09T09:15:08.892Z,26.80
2018-06-09T09:17:37.067Z,26.50
2018-06-09T09:22:34.140Z,26.80
2018-06-09T09:25:02.325Z,26.70
2018-06-09T09:27:31.485Z,26.90
2018-06-09T09:29:59.663Z,27.10
2018-06-09T09:32:27.842Z,27.30
2018-06-09T09:34:56.048Z,27.50
2018-06-09T09:37:24.308Z,27.10
2018-06-09T09:39:52.695Z,27.00
2018-06-09T09:42:21.043Z,27.10
2018-06-09T09:44:49.291Z,27.30
2018-06-09T09:47:17.473Z,27.40
2018-06-09T09:49:45.660Z,27.60
2018-06-09T09:54:41.793Z,27.70
2018-06-09T09:57:09.961Z,27.90
2018-06-09T09:59:38.164Z,28.00
2018-06-09T10:02:06.496Z,27.90
2018-06-09T10:04:34.744Z,27.80
2018-06-09T10:07:02.978Z,27.80
2018-06-09T10:09:31.338Z,27.70
2018-06-09T10:11:59.554Z,27.50
2018-06-09T10:14:27.750Z,27.70
2018-06-09T10:16:55.985Z,27.40
2018-06-09T10:19:24.190Z,27.60
2018-06-09T10:21:52.456Z,27.90
2018-06-09T10:24:20.576Z,28.00
2018-06-09T10:26:49.379Z,28.50
2018-06-09T10:29:17.918Z,28.40
2018-06-09T10:31:46.080Z,28.60
2018-06-09T10:34:14.256Z,28.10
2018-06-09T10:36:43.841Z,27.70
2018-06-09T10:41:39.947Z,27.30
2018-06-09T10:44:08.122Z,27.40
2018-06-09T10:46:36.329Z,27.40
2018-06-09T10:49:04.489Z,27.60
2018-06-09T10:51:32.640Z,27.40
2018-06-09T10:54:00.787Z,27.50
2018-06-09T10:56:28.936Z,27.70
2018-06-09T10:58:57.131Z,27.80
2018-06-09T11:01:25.307Z,27.80
2018-06-09T11:03:53.490Z,27.80
2018-06-09T11:06:21.638Z,27.60
2018-06-09T11:08:49.823Z,27.50
2018-06-09T11:11:21.289Z,27.50
2018-06-09T11:13:49.484Z,27.40
2018-06-09T11:16:17.655Z,27.50
2018-06-09T11:18:45.863Z,27.50
2018-06-09T11:21:14.062Z,27.80
2018-06-09T11:23:42.272Z,28.00
2018-06-09T11:26:10.444Z,27.80
2018-06-09T11:28:38.626Z,27.90
2018-06-09T11:33:34.814Z,28.40
2018-06-09T11:36:03.104Z,28.50
2018-06-09T11:38:31.288Z,28.20
2018-06-09T11:40:59.479Z,28.30
2018-06-09T11:43:27.664Z,28.30
2018-06-09T11:45:55.895Z,28.50
2018-06-09T11:48:24.133Z,28.60
2018-06-09T11:53:20.462Z,28.90
2018-06-09T11:55:48.752Z,29.00
2018-06-09T11:58:16.990Z,29.20
2018-06-09T12:00:45.190Z,29.20
2018-06-09T12:05:41.425Z,29.10
2018-06-09T12:08:09.652Z,28.80
2018-06-09T12:10:37.883Z,28.60
2018-06-09T12:13:06.159Z,28.50
2018-06-09T12:15:34.551Z,28.20
2018-06-09T12:18:03.290Z,27.90
2018-06-09T12:20:31.660Z,27.90
2018-06-09T12:22:59.978Z,27.80
2018-06-09T12:25:28.253Z,27.70
2018-06-09T12:27:56.427Z,27.80
2018-06-09T12:30:24.607Z,27.80
2018-06-09T12:32:52.819Z,27.60
2018-06-09T12:35:21.016Z,27.40
2018-06-09T12:37:49.196Z,27.40
2018-06-09T12:40:18.403Z,27.30
2018-06-09T12:42:49.679Z,27.20
2018-06-09T12:47:46.012Z,27.20
2018-06-09T12:50:14.224Z,27.00
2018-06-09T12:52:42.428Z,27.10
2018-06-09T12:55:10.704Z,27.10
2018-06-09T12:57:38.948Z,26.60
2018-06-09T13:00:07.218Z,26.20
2018-06-09T13:02:35.509Z,25.90
2018-06-09T13:05:03.814Z,25.60
2018-06-09T13:07:32.085Z,25.30
2018-06-09T13:10:00.333Z,24.80
2018-06-09T13:12:28.547Z,25.00
2018-06-09T13:17:24.838Z,25.30
2018-06-09T13:19:53.275Z,25.60
2018-06-09T13:22:21.545Z,25.90
2018-06-09T13:24:50.325Z,26.10
2018-06-09T13:27:18.821Z,26.30
2018-06-09T13:29:47.121Z,26.50
2018-06-09T13:32:15.326Z,26.70
2018-06-09T13:34:43.633Z,26.80
2018-06-09T13:37:11.900Z,26.60
2018-06-09T13:39:40.599Z,26.60
2018-06-09T13:42:08.819Z,26.70
2018-06-09T13:44:37.042Z,26.70
2018-06-09T13:47:05.319Z,26.70
2018-06-09T13:49:33.573Z,26.20
2018-06-09T13:52:02.086Z,25.80
2018-06-09T13:54:30.282Z,25.40
2018-06-09T13:59:26.445Z,24.90
2018-06-09T14:01:54.798Z,24.70
2018-06-09T14:04:22.992Z,24.60
2018-06-09T14:06:51.267Z,24.60
2018-06-09T14:09:19.468Z,24.50
2018-06-09T14:11:48.904Z,24.20
2018-06-09T14:14:17.268Z,24.00
2018-06-09T14:16:45.633Z,23.80
2018-06-09T14:19:13.906Z,23.60
2018-06-09T14:21:42.154Z,23.50
2018-06-09T14:24:10.460Z,23.40
2018-06-09T14:26:38.718Z,23.20
2018-06-09T14:29:06.917Z,22.80
2018-06-09T14:31:35.336Z,22.20
2018-06-09T14:34:03.865Z,21.90
2018-06-09T14:36:32.085Z,21.80
2018-06-09T14:39:00.369Z,21.60
2018-06-09T14:41:28.643Z,21.50
2018-06-09T14:43:57.091Z,21.40
2018-06-09T14:46:25.320Z,21.30
2018-06-09T14:48:53.737Z,21.20
2018-06-09T14:51:22.171Z,21.10
2018-06-09T14:53:50.489Z,21.00
2018-06-09T14:56:18.793Z,20.90
2018-06-09T14:58:47.017Z,20.80
2018-06-09T15:01:15.324Z,20.70
2018-06-09T15:03:43.630Z,20.70
2018-06-09T15:08:39.832Z,20.80
2018-06-09T15:11:08.049Z,20.80
2018-06-09T15:13:36.214Z,20.70
2018-06-09T15:16:04.967Z,20.70
2018-06-09T15:18:33.219Z,20.60
2018-06-09T15:21:01.693Z,20.60
2018-06-09T15:23:30.097Z,20.50
2018-06-09T15:25:58.962Z,20.50
2018-06-09T15:28:27.316Z,20.50
2018-06-09T15:30:55.738Z,20.50
2018-06-09T15:33:24.149Z,20.50
2018-06-09T15:35:52.776Z,20.40
2018-06-09T15:38:21.030Z,20.30
2018-06-09T15:40:49.359Z,20.20
2018-06-09T15:43:17.652Z,20.10
2018-06-09T15:45:45.921Z,20.00
2018-06-09T15:48:14.904Z,20.00
2018-06-09T15:50:43.360Z,19.90
2018-06-09T15:53:11.759Z,19.80
2018-06-09T15:55:40.248Z,19.80
2018-06-09T15:58:08.492Z,19.80
2018-06-09T16:00:36.779Z,19.70
2018-06-09T16:03:05.043Z,19.70
2018-06-09T16:05:33.210Z,19.70
2018-06-09T16:08:01.480Z,19.60
2018-06-09T16:10:29.697Z,19.60
2018-06-09T16:12:57.973Z,19.60
2018-06-09T16:15:26.335Z,19.50
2018-06-09T16:17:54.528Z,19.40
2018-06-09T16:20:22.795Z,19.40
2018-06-09T16:22:51.048Z,19.30
2018-06-09T16:25:19.451Z,19.20
2018-06-09T16:27:47.648Z,19.20
2018-06-09T16:30:15.898Z,19.10
2018-06-09T16:32:44.305Z,19.10
2018-06-09T16:35:12.502Z,19.10
2018-06-09T16:37:40.716Z,19.10
2018-06-09T16:40:09.085Z,19.10
2018-06-09T16:42:37.360Z,19.10
2018-06-09T16:45:05.667Z,19.10
2018-06-09T16:47:33.974Z,19.10
2018-06-09T16:50:02.426Z,19.00
2018-06-09T16:52:31.082Z,19.00
2018-06-09T16:54:59.416Z,19.00
2018-06-09T16:57:27.725Z,19.00
2018-06-09T16:59:55.897Z,19.00
2018-06-09T17:02:25.217Z,19.00
2018-06-09T17:04:53.513Z,19.10
2018-06-09T17:07:21.769Z,19.00
2018-06-09T17:09:49.993Z,19.10
2018-06-09T17:14:46.739Z,19.10
2018-06-09T17:17:15.023Z,19.10
2018-06-09T17:19:43.366Z,19.00
2018-06-09T17:22:11.612Z,19.00
2018-06-09T17:24:40.613Z,19.00
2018-06-09T17:27:08.943Z,19.00
2018-06-09T17:29:37.244Z,19.00
2018-06-09T17:32:05.524Z,19.10
2018-06-09T17:34:33.943Z,19.00
2018-06-09T17:37:02.194Z,19.00
2018-06-09T17:39:30.516Z,19.10
2018-06-09T17:41:59.405Z,19.10
2018-06-09T17:44:28.329Z,19.10
2018-06-09T17:46:56.799Z,19.00
2018-06-09T17:49:33.227Z,19.00
2018-06-09T17:52:01.477Z,18.90
2018-06-09T17:54:30.174Z,18.90
2018-06-09T17:56:58.668Z,18.90
2018-06-09T17:59:26.877Z,18.90
2018-06-09T18:01:55.136Z,18.90
2018-06-09T18:04:23.394Z,18.80
2018-06-09T18:06:51.760Z,18.80
2018-06-09T18:09:21.420Z,18.80
2018-06-09T18:11:50.098Z,18.70
2018-06-09T18:14:19.131Z,18.80
2018-06-09T18:16:47.365Z,18.70
2018-06-09T18:19:15.700Z,18.80
2018-06-09T18:21:43.840Z,18.80
2018-06-09T18:24:12.203Z,18.70
2018-06-09T18:26:40.567Z,18.70
2018-06-09T18:29:08.827Z,18.70
2018-06-09T18:31:37.135Z,18.80
2018-06-09T18:34:05.497Z,18.70
2018-06-09T18:36:33.936Z,18.60
2018-06-09T18:39:02.266Z,18.60
2018-06-09T18:41:30.566Z,18.50
2018-06-09T18:43:58.815Z,18.60
2018-06-09T18:46:27.101Z,18.60
2018-06-09T18:48:55.503Z,18.60
2018-06-09T18:51:23.752Z,18.60
2018-06-09T18:53:52.122Z,18.70
2018-06-09T18:56:21.597Z,18.70
2018-06-09T18:58:50.089Z,18.70
2018-06-09T19:01:18.271Z,18.70
2018-06-09T19:03:46.454Z,18.70
2018-06-09T19:06:14.673Z,18.70
2018-06-09T19:08:43.055Z,18.80
2018-06-09T19:11:11.328Z,18.70
2018-06-09T19:13:39.528Z,18.70
2018-06-09T19:16:07.805Z,18.70
2018-06-09T19:18:36.025Z,18.70
2018-06-09T19:21:17.695Z,18.60
2018-06-09T19:23:45.898Z,18.60
2018-06-09T19:26:14.103Z,18.60
2018-06-09T19:28:42.337Z,18.60
2018-06-09T19:31:10.540Z,18.60
2018-06-09T19:33:38.775Z,18.50
2018-06-09T19:36:07.143Z,18.50
2018-06-09T19:38:35.455Z,18.50
2018-06-09T19:41:04.519Z,18.50
2018-06-09T19:43:32.780Z,18.40
2018-06-09T19:46:01.352Z,18.40
2018-06-09T19:48:29.618Z,18.40
2018-06-09T19:50:57.900Z,18.40
2018-06-09T19:53:26.085Z,18.40
2018-06-09T19:55:55.619Z,18.30
2018-06-09T19:58:24.188Z,18.30
2018-06-09T20:00:52.711Z,18.30
2018-06-09T20:03:21.073Z,18.30
2018-06-09T20:05:49.332Z,18.30
2018-06-09T20:08:17.622Z,18.20
2018-06-09T20:10:46.312Z,18.20
2018-06-09T20:13:14.505Z,18.20
2018-06-09T20:15:42.844Z,18.10
2018-06-09T20:18:12.242Z,18.10
2018-06-09T20:20:41.300Z,18.10
2018-06-09T20:23:09.719Z,18.10
2018-06-09T20:25:38.060Z,18.10
2018-06-09T20:28:06.285Z,18.10
2018-06-09T20:30:34.563Z,18.10
2018-06-09T20:33:02.816Z,18.00
2018-06-09T20:35:31.017Z,18.00
2018-06-09T20:37:59.279Z,18.00
2018-06-09T20:40:27.598Z,18.00
2018-06-09T20:42:55.895Z,18.00
2018-06-09T20:45:24.099Z,17.90
2018-06-09T20:47:52.321Z,17.90
2018-06-09T20:50:20.541Z,17.90
2018-06-09T20:52:49.840Z,17.80
2018-06-09T20:55:18.035Z,17.80
2018-06-09T20:57:46.232Z,17.80
2018-06-09T21:00:14.464Z,17.70
2018-06-09T21:02:42.752Z,17.70
2018-06-09T21:05:10.949Z,17.60
2018-06-09T21:07:39.276Z,17.60
2018-06-09T21:10:07.480Z,17.50
2018-06-09T21:12:35.721Z,17.50
2018-06-09T21:15:03.909Z,17.40
2018-06-09T21:17:32.229Z,17.40
2018-06-09T21:20:00.550Z,17.40
2018-06-09T21:22:29.656Z,17.30
2018-06-09T21:24:58.070Z,17.30
2018-06-09T21:27:33.428Z,17.20
2018-06-09T21:30:06.016Z,17.20
2018-06-09T21:32:39.534Z,17.20
2018-06-09T21:35:24.608Z,17.20
2018-06-09T21:37:57.047Z,17.30
2018-06-09T21:40:25.323Z,17.30
2018-06-09T21:42:58.962Z,17.30
2018-06-09T21:45:32.382Z,17.30
2018-06-09T21:48:00.584Z,17.30
2018-06-09T21:50:29.202Z,17.30
2018-06-09T21:52:57.458Z,17.30
2018-06-09T21:55:25.885Z,17.30
2018-06-09T21:57:54.134Z,17.30
2018-06-09T22:00:26.740Z,17.30
2018-06-09T22:02:55.680Z,17.30
2018-06-09T22:05:23.895Z,17.20
2018-06-09T22:07:52.116Z,17.20
2018-06-09T22:10:20.349Z,17.20
2018-06-09T22:12:48.985Z,17.20
2018-06-09T22:15:17.299Z,17.20
2018-06-09T22:17:45.487Z,17.20
2018-06-09T22:20:13.810Z,17.20
2018-06-09T22:22:42.452Z,17.20
2018-06-09T22:25:10.873Z,17.20
2018-06-09T22:27:39.175Z,17.20
2018-06-09T22:30:07.457Z,17.20
2018-06-09T22:32:35.953Z,17.30
2018-06-09T22:35:04.191Z,17.20
2018-06-09T22:40:00.299Z,17.20
2018-06-09T22:42:28.578Z,17.30
2018-06-09T22:44:56.820Z,17.30
2018-06-09T22:47:25.596Z,17.30
2018-06-09T22:49:53.834Z,17.30
2018-06-09T22:52:22.071Z,17.30
2018-06-09T22:54:50.480Z,17.30
2018-06-09T22:57:18.654Z,17.30
2018-06-09T22:59:47.504Z,17.30
2018-06-09T23:02:15.732Z,17.30
2018-06-09T23:04:43.954Z,17.30
2018-06-09T23:07:12.429Z,17.30
2018-06-09T23:09:40.743Z,17.20
2018-06-09T23:12:08.907Z,17.20
2018-06-09T23:14:37.075Z,17.20
2018-06-09T23:17:05.437Z,17.20
2018-06-09T23:19:33.910Z,17.20
2018-06-09T23:22:02.091Z,17.10
2018-06-09T23:24:30.308Z,17.10
2018-06-09T23:26:58.757Z,17.00
2018-06-09T23:29:26.967Z,17.00
2018-06-09T23:31:55.147Z,17.00
2018-06-09T23:34:23.367Z,17.00
2018-06-09T23:36:51.565Z,17.00
2018-06-09T23:39:19.812Z,16.90
2018-06-09T23:41:48.008Z,16.90
2018-06-09T23:44:16.195Z,16.90
2018-06-09T23:46:44.371Z,16.90
2018-06-09T23:49:12.556Z,16.90
2018-06-09T23:51:41.025Z,16.80
2018-06-09T23:54:09.249Z,16.80
2018-06-09T23:56:37.454Z,16.80
2018-06-09T23:59:05.632Z,16.70
